Time;durP1;ratioP1;P1;durP2;ratioP2;P2;SDS_P1;SDS_P2;PMS_P1;PMS_P2;Temp;Humidity;BMP_temperature;BMP_pressure;BME280_temperature;BME280_humidity;BME280_pressure;Samples;Min_cycle;Max_cycle;Signal;HPM_P1;HPM_P2
2023/04/11 00:02:20;;;;;;;7.75;1.38;;;;;;;5.63;78.27;100102.81;5066768;28;20464;-46
2023/04/11 00:04:47;;;;;;;10.10;2.85;;;;;;;5.63;78.16;100115.72;5056217;28;20376;-43
2023/04/11 00:07:16;;;;;;;7.35;1.77;;;;;;;5.62;78.44;100120.41;5062585;28;20049;-43
2023/04/11 00:09:43;;;;;;;9.10;1.95;;;;;;;5.60;78.39;100124.63;5050273;28;20036;-43
2023/04/11 00:12:10;;;;;;;6.85;1.90;;;;;;;5.58;78.66;100127.69;5059578;28;20044;-43
2023/04/11 00:14:37;;;;;;;10.23;2.67;;;;;;;5.57;78.42;100125.25;5051425;28;20060;-43
2023/04/11 00:17:04;;;;;;;10.57;2.67;;;;;;;5.54;78.90;100130.28;5060139;28;20494;-43
2023/04/11 00:19:32;;;;;;;4.50;1.83;;;;;;;5.54;78.52;100130.28;5036895;28;20044;-43
2023/04/11 00:22:00;;;;;;;6.82;1.63;;;;;;;5.51;78.87;100141.91;5069190;28;20048;-47
2023/04/11 00:24:27;;;;;;;8.43;2.45;;;;;;;5.50;79.05;100132.09;5061210;28;20061;-43
2023/04/11 00:26:55;;;;;;;6.35;3.58;;;;;;;5.49;79.24;100133.22;5048197;28;20091;-43
2023/04/11 00:29:23;;;;;;;10.05;2.05;;;;;;;5.48;78.95;100137.06;5030132;28;20521;-50
2023/04/11 00:31:54;;;;;;;9.35;1.70;;;;;;;5.45;79.18;100132.22;5051044;28;20049;-43
2023/04/11 00:34:21;;;;;;;5.68;2.20;;;;;;;5.44;79.03;100130.63;5048135;28;20068;-44
2023/04/11 00:36:48;;;;;;;5.35;1.65;;;;;;;5.41;79.30;100135.97;5040777;28;20049;-43
2023/04/11 00:39:17;;;;;;;8.95;1.85;;;;;;;5.39;79.28;100138.22;5053961;28;20032;-47
2023/04/11 00:41:45;;;;;;;7.75;1.88;;;;;;;5.38;79.34;100131.94;5055811;28;20447;-43
2023/04/11 00:44:12;;;;;;;11.80;2.58;;;;;;;5.38;79.59;100136.59;5046738;28;20041;-43
2023/04/11 00:46:44;;;;;;;8.88;2.00;;;;;;;5.35;79.52;100138.06;5048554;28;20044;-46
2023/04/11 00:49:12;;;;;;;;;;;;;;;5.34;79.90;100141.16;5056783;28;20474;-48
2023/04/11 00:51:39;;;;;;;12.35;2.97;;;;;;;5.33;79.65;100140.34;5065562;28;20297;-44
2023/04/11 00:54:09;;;;;;;6.13;1.73;;;;;;;5.30;79.55;100135.50;5068554;28;20135;-49
2023/04/11 00:56:36;;;;;;;6.25;1.63;;;;;;;5.29;79.48;100133.91;5034911;28;20060;-43
2023/04/11 00:59:06;;;;;;;14.93;2.50;;;;;;;5.29;79.89;100128.41;5021177;28;20039;-49
2023/04/11 01:01:35;;;;;;;6.43;1.88;;;;;;;5.28;79.97;100135.00;5061473;28;20131;-47
2023/04/11 01:04:02;;;;;;;7.40;1.50;;;;;;;5.28;80.00;100128.72;5030382;28;20045;-43
2023/04/11 01:06:32;;;;;;;12.00;1.70;;;;;;;5.28;80.16;100121.28;5054664;28;20053;-46
2023/04/11 01:08:59;;;;;;;7.13;1.90;;;;;;;5.29;80.01;100122.91;5058115;28;20088;-45
2023/04/11 01:11:26;;;;;;;9.95;2.38;;;;;;;5.28;80.14;100126.78;5031055;28;20045;-43
2023/04/11 01:13:54;;;;;;;8.77;1.92;;;;;;;5.30;79.98;100137.41;5058586;28;20048;-43
2023/04/11 01:16:21;;;;;;;10.75;2.47;;;;;;;5.29;80.12;100133.91;5050765;28;20060;-44
2023/04/11 01:18:48;;;;;;;16.52;2.03;;;;;;;5.30;80.26;100129.19;5057064;28;20052;-43
2023/04/11 01:21:18;;;;;;;14.95;2.75;;;;;;;5.29;80.25;100128.41;5062520;28;20098;-43
2023/04/11 01:23:47;;;;;;;9.23;1.63;;;;;;;5.27;79.94;100116.94;5049479;28;20059;-43
2023/04/11 01:26:15;;;;;;;11.60;1.52;;;;;;;5.26;80.03;100122.75;5048092;28;20037;-43
2023/04/11 01:28:42;;;;;;;15.35;2.22;;;;;;;5.25;80.03;100115.63;5047470;28;20064;-43
2023/04/11 01:31:09;;;;;;;10.70;1.63;;;;;;;5.25;80.31;100121.13;5067355;28;20037;-44
2023/04/11 01:33:36;;;;;;;9.05;1.67;;;;;;;5.24;80.38;100108.56;5068420;28;20493;-43
2023/04/11 01:36:03;;;;;;;7.88;1.52;;;;;;;5.23;80.53;100121.47;5054652;28;20439;-43
2023/04/11 01:38:30;;;;;;;15.68;3.10;;;;;;;5.24;80.25;100136.78;5067964;28;20055;-45
2023/04/11 01:40:57;;;;;;;15.45;3.03;;;;;;;5.24;80.55;100125.81;5051256;28;20497;-43
2023/04/11 01:43:28;;;;;;;12.63;2.45;;;;;;;5.27;80.50;100124.38;5043438;28;20080;-46
2023/04/11 01:45:55;;;;;;;12.85;2.53;;;;;;;5.25;80.44;100126.63;5034393;28;20044;-47
2023/04/11 01:48:23;;;;;;;9.25;1.83;;;;;;;5.26;80.70;100123.56;5048378;28;20099;-45
2023/04/11 01:50:51;;;;;;;12.50;2.42;;;;;;;5.25;80.35;100123.88;5070759;28;20098;-43
2023/04/11 01:53:18;;;;;;;8.93;2.17;;;;;;;5.24;80.39;100128.53;5028625;28;20045;-44
2023/04/11 01:55:46;;;;;;;18.63;3.35;;;;;;;5.25;80.44;100123.88;5059282;28;20080;-43
2023/04/11 01:58:14;;;;;;;8.98;1.80;;;;;;;5.25;80.40;100115.63;5065607;28;20053;-43
2023/04/11 02:00:42;;;;;;;14.73;2.10;;;;;;;5.25;80.64;100127.44;5051687;28;20049;-48
2023/04/11 02:03:09;;;;;;;10.85;2.08;;;;;;;5.25;80.25;100135.66;5083355;28;20060;-43
2023/04/11 02:05:38;;;;;;;11.68;2.58;;;;;;;5.25;80.58;100127.44;5060443;28;20131;-44
2023/04/11 02:08:05;;;;;;;18.85;2.03;;;;;;;5.27;80.62;100129.88;5087895;28;20201;-44
2023/04/11 02:10:32;;;;;;;6.72;2.17;;;;;;;5.26;80.45;100126.31;5073709;28;20052;-43
2023/04/11 02:12:59;;;;;;;13.20;2.08;;;;;;;5.26;80.57;100129.06;5091875;28;20044;-43
2023/04/11 02:15:26;;;;;;;10.02;2.08;;;;;;;5.26;80.67;100129.06;5084422;28;20464;-48
2023/04/11 02:17:53;;;;;;;12.40;3.03;;;;;;;5.24;80.31;100128.53;5088508;28;20115;-43
2023/04/11 02:20:22;;;;;;;8.65;1.67;;;;;;;5.24;80.55;100128.53;5091867;28;20048;-43
2023/04/11 02:22:50;;;;;;;10.55;2.00;;;;;;;5.24;80.61;100130.50;5057759;28;20044;-43
2023/04/11 02:25:17;;;;;;;13.85;2.67;;;;;;;5.23;80.58;100123.41;5091871;28;20044;-43
2023/04/11 02:27:44;;;;;;;12.82;4.30;;;;;;;5.24;80.75;100134.03;5091903;28;20044;-43
2023/04/11 02:30:11;;;;;;;12.35;2.28;;;;;;;5.23;81.09;100135.19;5080311;28;20106;-46
2023/04/11 02:32:38;;;;;;;8.82;1.90;;;;;;;5.24;80.84;100130.50;5084737;28;20043;-43
2023/04/11 02:35:08;;;;;;;9.05;2.17;;;;;;;5.23;81.05;100129.69;5073449;28;20070;-43
2023/04/11 02:37:36;;;;;;;17.00;2.20;;;;;;;5.23;80.92;100137.94;5091910;28;20071;-43
2023/04/11 02:40:03;;;;;;;10.65;2.00;;;;;;;5.22;80.96;100124.50;5073115;28;20536;-43
2023/04/11 02:42:30;;;;;;;5.53;2.03;;;;;;;5.22;81.20;100128.06;5084356;28;20049;-43
2023/04/11 02:44:57;;;;;;;9.90;1.60;;;;;;;5.24;81.15;100130.50;5075905;28;20413;-43
2023/04/11 02:47:24;;;;;;;10.68;1.92;;;;;;;5.25;81.38;100119.19;5073505;28;20048;-44
2023/04/11 02:49:52;;;;;;;17.75;2.22;;;;;;;5.26;81.04;100118.06;5079627;28;20044;-43
2023/04/11 02:52:20;;;;;;;16.17;2.28;;;;;;;5.27;81.18;100122.41;5083676;28;20056;-44
2023/04/11 02:54:47;;;;;;;9.15;2.05;;;;;;;5.29;81.31;100117.44;5065700;28;20058;-44
2023/04/11 02:57:14;;;;;;;8.15;1.63;;;;;;;5.30;81.31;100115.47;5091257;28;20044;-47
2023/04/11 02:59:44;;;;;;;13.32;1.90;;;;;;;5.30;81.24;100124.50;5090966;28;20047;-45
2023/04/11 03:02:11;;;;;;;9.68;1.80;;;;;;;5.31;81.15;100120.66;5088526;22;20052;-43
2023/04/11 03:04:39;;;;;;;8.48;2.03;;;;;;;5.31;81.10;100117.09;5050773;28;20501;-43
2023/04/11 03:07:11;;;;;;;9.55;1.73;;;;;;;5.30;81.50;100115.47;5050807;28;20149;-42
2023/04/11 03:09:38;;;;;;;14.77;2.13;;;;;;;5.30;81.18;100102.56;5058908;28;20052;-43
2023/04/11 03:12:05;;;;;;;9.85;1.60;;;;;;;5.29;81.15;100100.97;5057882;28;20402;-43
2023/04/11 03:14:34;;;;;;;10.80;3.25;;;;;;;5.28;81.48;100115.00;5054363;28;20110;-44
2023/04/11 03:17:04;;;;;;;12.05;2.67;;;;;;;5.27;81.41;100094.97;5060037;28;20052;-49
2023/04/11 03:19:31;;;;;;;9.88;1.75;;;;;;;5.27;81.47;100097.72;5056536;28;20127;-42
2023/04/11 03:22:00;;;;;;;9.70;1.83;;;;;;;5.26;81.56;100098.06;5070459;28;20067;-43
2023/04/11 03:24:29;;;;;;;6.93;1.90;;;;;;;5.25;81.37;100097.25;5053753;28;20037;-43
2023/04/11 03:26:57;;;;;;;9.80;2.17;;;;;;;5.24;81.74;100098.34;5060539;28;20102;-44
2023/04/11 03:29:24;;;;;;;11.18;1.55;;;;;;;5.25;81.76;100097.25;5069772;28;20052;-42
2023/04/11 03:31:51;;;;;;;11.02;2.42;;;;;;;5.25;81.82;100083.53;5069913;28;20037;-42
2023/04/11 03:34:22;;;;;;;7.18;2.10;;;;;;;5.24;81.62;100086.59;5051608;28;20049;-43
2023/04/11 03:36:49;;;;;;;7.80;1.67;;;;;;;5.21;81.69;100088.06;5049379;28;20041;-49
2023/04/11 03:39:20;;;;;;;15.63;3.63;;;;;;;5.21;81.55;100082.56;5054920;28;20048;-42
2023/04/11 03:41:48;;;;;;;16.52;3.72;;;;;;;5.19;81.47;100073.06;5064161;28;20052;-42
2023/04/11 03:44:15;;;;;;;13.07;1.88;;;;;;;5.18;81.61;100077.72;5032299;28;20055;-42
2023/04/11 03:46:42;;;;;;;10.73;1.50;;;;;;;5.17;81.95;100075.28;5062688;28;20036;-43
2023/04/11 03:49:09;;;;;;;12.00;2.15;;;;;;;5.16;81.87;100079.19;5056397;28;20044;-43
2023/04/11 03:51:37;;;;;;;12.93;3.08;;;;;;;5.14;82.04;100065.78;5069721;28;20068;-42
2023/04/11 03:54:06;;;;;;;10.65;1.65;;;;;;;5.13;81.72;100069.66;5036471;28;20102;-43
2023/04/11 03:56:33;;;;;;;11.70;1.50;;;;;;;5.12;81.84;100069.97;5049427;28;20070;-46
2023/04/11 03:59:00;;;;;;;7.78;1.58;;;;;;;5.10;81.85;100066.75;5061675;28;20052;-42
2023/04/11 04:01:27;;;;;;;7.18;1.83;;;;;;;5.06;82.22;100058.38;5063085;28;20048;-43
2023/04/11 04:03:54;;;;;;;7.30;1.90;;;;;;;5.06;82.17;100058.38;5069487;28;20070;-43
2023/04/11 04:06:22;;;;;;;6.88;1.77;;;;;;;5.05;81.99;100062.25;5041281;28;20123;-50
2023/04/11 04:08:49;;;;;;;8.75;1.48;;;;;;;5.04;81.89;100055.16;5029305;28;20057;-43
2023/04/11 04:11:16;;;;;;;9.02;1.92;;;;;;;5.02;82.00;100051.94;5028799;28;20049;-44
2023/04/11 04:13:43;;;;;;;6.55;2.15;;;;;;;5.02;81.95;100051.94;5032135;28;20058;-46
2023/04/11 04:16:10;;;;;;;7.22;1.50;;;;;;;5.00;81.79;100050.66;5069595;28;20525;-43
2023/04/11 04:18:37;;;;;;;11.40;1.85;;;;;;;4.98;82.12;100048.22;5069406;28;20469;-42
2023/04/11 04:21:06;;;;;;;9.50;1.83;;;;;;;4.97;81.97;100052.09;5068731;28;20461;-43
2023/04/11 04:23:34;;;;;;;7.15;1.52;;;;;;;4.96;82.03;100053.22;5069341;28;20043;-43
2023/04/11 04:26:02;;;;;;;5.03;1.33;;;;;;;4.94;82.19;100044.53;5058560;28;20045;-42
2023/04/11 04:28:29;;;;;;;5.32;1.73;;;;;;;4.93;81.96;100049.19;5049579;28;20041;-43
2023/04/11 04:30:56;;;;;;;5.55;1.15;;;;;;;4.93;82.03;100037.41;5049142;28;20040;-45
2023/04/11 04:33:23;;;;;;;8.43;2.17;;;;;;;4.92;81.83;100033.84;5049277;28;20047;-43
2023/04/11 04:35:58;;;;;;;7.65;1.77;;;;;;;4.92;81.94;100041.31;5049789;28;20124;-43
2023/04/11 04:38:27;;;;;;;3.63;1.23;;;;;;;4.90;81.62;100022.41;5049195;28;20045;-44
2023/04/11 04:40:54;;;;;;;11.15;1.30;;;;;;;4.90;81.80;100032.56;5032004;28;20053;-43
2023/04/11 04:43:23;;;;;;;9.02;1.85;;;;;;;4.90;81.73;100027.09;5049535;28;20045;-42
2023/04/11 04:45:50;;;;;;;6.00;2.78;;;;;;;4.90;81.91;100010.63;5049410;28;20391;-47
2023/04/11 04:48:17;;;;;;;11.00;1.45;;;;;;;4.91;81.88;100018.56;5055144;28;20083;-45
2023/04/11 04:50:45;;;;;;;5.93;1.20;;;;;;;4.91;81.81;100018.56;5069203;28;20044;-43
2023/04/11 04:53:13;;;;;;;9.90;1.50;;;;;;;4.93;81.95;100026.44;5069311;28;20048;-42
2023/04/11 04:55:40;;;;;;;3.35;1.17;;;;;;;4.92;81.67;100019.38;5051515;28;20049;-43
2023/04/11 04:58:07;;;;;;;6.38;1.35;;;;;;;4.93;81.96;100004.50;5068998;28;20056;-43
2023/04/11 05:00:35;;;;;;;8.45;1.25;;;;;;;4.94;81.92;99997.88;5058510;28;20080;-43
2023/04/11 05:03:04;;;;;;;11.65;2.45;;;;;;;4.94;81.96;99995.16;5048734;28;20088;-46
2023/04/11 05:05:31;;;;;;;7.03;2.10;;;;;;;4.96;82.04;99997.56;5049541;28;20041;-43
2023/04/11 05:07:59;;;;;;;10.50;2.10;;;;;;;4.95;81.83;99998.72;5031078;28;20525;-43
2023/04/11 05:10:29;;;;;;;6.18;1.60;;;;;;;4.95;82.12;99991.25;5029089;28;20415;-44
2023/04/11 05:12:56;;;;;;;5.07;1.15;;;;;;;4.96;81.97;99984.66;5011491;28;20049;-43
2023/04/11 05:15:23;;;;;;;6.57;1.70;;;;;;;4.97;81.88;99983.53;5029008;28;20041;-43
2023/04/11 05:17:50;;;;;;;8.25;1.45;;;;;;;4.99;81.79;99980.44;5010675;28;20053;-42
2023/04/11 05:20:17;;;;;;;10.35;1.38;;;;;;;5.00;81.87;99987.56;5028379;28;20053;-42
2023/04/11 05:22:44;;;;;;;4.18;1.20;;;;;;;5.00;81.80;99985.63;5039377;28;20265;-43
2023/04/11 05:25:13;;;;;;;14.82;1.45;;;;;;;5.01;82.08;99984.47;5048534;28;20108;-43
2023/04/11 05:27:41;;;;;;;8.20;1.48;;;;;;;5.04;81.94;99988.50;5049001;28;20041;-43
2023/04/11 05:30:09;;;;;;;9.88;1.20;;;;;;;5.04;81.69;99988.50;5030678;28;20041;-43
2023/04/11 05:32:36;;;;;;;12.60;1.63;;;;;;;5.06;81.71;99987.03;5048500;28;20045;-42
2023/04/11 05:35:04;;;;;;;7.50;1.10;;;;;;;5.06;81.85;99991.72;5048368;28;20072;-42
2023/04/11 05:37:31;;;;;;;6.70;1.42;;;;;;;5.06;81.93;99981.56;5048815;28;20476;-42
2023/04/11 05:39:59;;;;;;;5.57;1.35;;;;;;;5.06;81.93;99988.97;5035761;28;20048;-44
2023/04/11 05:42:26;;;;;;;4.78;1.30;;;;;;;5.06;81.69;99991.72;5048501;28;20464;-42
2023/04/11 05:44:52;;;;;;;7.45;1.38;;;;;;;5.04;81.71;99994.00;5052665;28;20045;-42
2023/04/11 05:47:19;;;;;;;8.20;1.13;;;;;;;5.04;82.04;99989.31;5068335;28;20584;-44
2023/04/11 05:49:47;;;;;;;12.23;1.40;;;;;;;5.03;81.74;100000.63;5067766;28;20397;-44
2023/04/11 05:52:14;;;;;;;5.38;1.20;;;;;;;5.02;82.04;99988.84;5068014;28;20057;-43
2023/04/11 05:54:43;;;;;;;4.43;1.40;;;;;;;5.01;82.20;99994.63;5065721;28;20533;-43
2023/04/11 05:57:10;;;;;;;5.55;1.27;;;;;;;4.98;82.05;100004.31;5057691;28;20513;-44
2023/04/11 05:59:38;;;;;;;13.07;3.35;;;;;;;4.97;82.27;99994.50;5054140;28;20497;-43
2023/04/11 06:02:05;;;;;;;11.52;2.25;;;;;;;4.96;82.05;99997.56;5058219;28;20064;-42
2023/04/11 06:04:32;;;;;;;18.05;3.17;;;;;;;4.95;82.49;99985.00;5050717;28;20398;-43
2023/04/11 06:07:02;;;;;;;12.30;2.78;;;;;;;4.95;82.19;99998.72;5046922;28;20114;-43
2023/04/11 06:09:29;;;;;;;19.92;4.50;;;;;;;4.96;82.31;99992.88;5031328;28;20127;-42
2023/04/11 06:12:01;;;;;;;13.05;2.47;;;;;;;4.95;82.46;99991.25;5065056;28;20135;-49
2023/04/11 06:14:31;;;;;;;12.15;2.05;;;;;;;4.96;82.42;99998.38;5055939;28;20048;-43
2023/04/11 06:16:58;;;;;;;12.75;2.60;;;;;;;4.96;82.48;99997.56;5049039;28;20071;-43
2023/04/11 06:19:25;;;;;;;10.35;2.08;;;;;;;4.96;82.75;99992.06;5047460;28;20053;-43
2023/04/11 06:21:52;;;;;;;9.05;1.77;;;;;;;4.96;82.55;99992.88;5053033;28;20037;-43
2023/04/11 06:24:34;;;;;;;8.57;3.78;;;;;;;4.98;82.67;99982.38;5067750;28;20106;-43
2023/04/11 06:27:02;;;;;;;10.47;1.67;;;;;;;5.02;nan;99985.28;5056520;28;20047;-43
2023/04/11 06:29:29;;;;;;;7.97;1.42;;;;;;;5.03;82.67;99976.72;5056589;28;20406;-43
2023/04/11 06:31:58;;;;;;;3.83;1.00;;;;;;;5.07;82.63;99979.63;5049637;28;20530;-42
2023/04/11 06:34:25;;;;;;;6.28;1.45;;;;;;;5.12;82.87;99974.75;5032451;28;20499;-43
2023/04/11 06:36:54;;;;;;;5.15;0.77;;;;;;;5.15;82.83;99976.84;5040826;28;20045;-43
2023/04/11 06:39:22;;;;;;;7.88;1.80;;;;;;;5.20;82.81;99973.94;5046516;28;20132;-52
2023/04/11 06:41:50;;;;;;;8.23;1.10;;;;;;;5.27;82.96;99976.19;5033221;28;20491;-47
2023/04/11 06:44:20;;;;;;;9.55;1.45;;;;;;;5.35;82.77;99962.41;5054411;28;20050;-45
2023/04/11 06:46:48;;;;;;;8.85;1.60;;;;;;;5.43;82.93;99969.78;5069337;28;20036;-49
2023/04/11 06:49:17;;;;;;;6.45;1.20;;;;;;;5.52;82.91;99969.75;5036206;28;20129;-43
2023/04/11 06:51:53;;;;;;;4.18;1.63;;;;;;;5.57;83.06;99971.50;5060408;28;20077;-44
2023/04/11 06:54:21;;;;;;;2.35;0.80;;;;;;;5.61;83.11;99964.22;5034332;28;20045;-43
2023/04/11 06:56:49;;;;;;;7.43;1.75;;;;;;;5.65;82.88;99959.69;5050211;28;20080;-44
2023/04/11 06:59:19;;;;;;;5.55;1.75;;;;;;;5.70;82.96;99954.81;5056744;28;20102;-44
2023/04/11 07:01:47;;;;;;;7.53;2.33;;;;;;;5.79;83.26;99965.75;5043678;28;20102;-45
2023/04/11 07:04:15;;;;;;;7.50;2.33;;;;;;;5.89;82.96;99960.69;5034324;28;20135;-43
2023/04/11 07:06:42;;;;;;;10.88;1.40;;;;;;;6.00;83.10;99961.13;5049853;28;20056;-45
2023/04/11 07:09:11;;;;;;;11.75;1.73;;;;;;;6.12;82.80;99964.72;5050422;28;20037;-45
2023/04/11 07:11:39;;;;;;;9.35;3.30;;;;;;;6.22;82.81;99966.31;5047329;28;20548;-44
2023/04/11 07:14:06;;;;;;;7.50;1.20;;;;;;;6.30;82.67;99967.38;5054614;28;20044;-44
2023/04/11 07:16:33;;;;;;;17.23;2.97;;;;;;;6.36;82.54;99958.56;5032892;28;20065;-43
2023/04/11 07:19:02;;;;;;;3.20;1.15;;;;;;;6.44;82.61;99951.38;5061543;28;20055;-45
2023/04/11 07:21:32;;;;;;;3.65;1.33;;;;;;;6.52;82.68;99958.75;5060708;28;20091;-44
2023/04/11 07:24:02;;;;;;;6.65;1.35;;;;;;;6.62;82.51;99948.13;5060576;28;20473;-44
2023/04/11 07:26:31;;;;;;;5.20;1.23;;;;;;;6.73;82.63;99941.06;5055009;28;20079;-49
2023/04/11 07:28:58;;;;;;;4.13;0.93;;;;;;;6.84;82.69;99937.88;5059384;28;20048;-44
2023/04/11 07:31:27;;;;;;;8.07;1.17;;;;;;;6.94;82.75;99934.69;5053666;28;20049;-44
2023/04/11 07:33:54;;;;;;;7.57;1.20;;;;;;;7.04;82.64;99915.81;5037991;28;20042;-45
2023/04/11 07:36:22;;;;;;;9.85;1.73;;;;;;;7.13;82.42;99923.97;5038867;28;20510;-45
2023/04/11 07:38:51;;;;;;;8.23;1.40;;;;;;;7.22;82.53;99913.66;5047766;28;20143;-43
2023/04/11 07:41:18;;;;;;;8.50;1.35;;;;;;;7.34;82.32;99910.91;5048899;28;20059;-42
2023/04/11 07:43:44;;;;;;;13.48;1.23;;;;;;;7.46;82.30;99908.16;5061954;28;20135;-49
2023/04/11 07:46:20;;;;;;;4.80;0.90;;;;;;;7.57;82.01;99903.78;5068553;28;20045;-42
2023/04/11 07:48:49;;;;;;;4.82;1.27;;;;;;;7.69;82.10;99903.78;5070140;28;20060;-44
2023/04/11 07:51:16;;;;;;;5.50;1.13;;;;;;;7.81;82.01;99908.47;5033809;28;20131;-53
2023/04/11 07:53:48;;;;;;;7.93;0.93;;;;;;;7.91;81.77;99897.78;5059624;28;20087;-46
2023/04/11 07:56:18;;;;;;;6.30;1.33;;;;;;;8.02;81.66;99902.81;5039485;28;20059;-44
2023/04/11 07:58:45;;;;;;;8.07;1.60;;;;;;;8.05;81.59;99897.38;5044861;28;20045;-45
2023/04/11 08:01:22;;;;;;;3.92;1.30;;;;;;;8.09;81.48;99892.78;5056115;28;20532;-47
2023/04/11 08:03:52;;;;;;;8.10;1.25;;;;;;;8.16;81.50;99883.91;5050197;28;20045;-44
2023/04/11 08:06:20;;;;;;;6.32;1.30;;;;;;;8.23;81.34;99878.63;5061927;28;20048;-46
2023/04/11 08:08:49;;;;;;;4.78;1.17;;;;;;;8.28;81.30;99875.63;5065140;28;20135;-45
2023/04/11 08:11:16;;;;;;;5.70;1.45;;;;;;;8.32;81.27;99873.78;5055957;28;20048;-44
2023/04/11 08:13:44;;;;;;;4.22;1.20;;;;;;;8.36;81.08;99869.16;5057732;28;20040;-44
2023/04/11 08:16:14;;;;;;;14.55;1.92;;;;;;;8.42;80.90;99862.22;5055362;28;20052;-45
2023/04/11 08:18:41;;;;;;;6.85;0.93;;;;;;;8.47;80.76;99860.03;5037725;28;20048;-43
2023/04/11 08:21:10;;;;;;;8.27;1.38;;;;;;;8.52;80.79;99850.72;5007186;28;20085;-44
2023/04/11 08:23:38;;;;;;;4.85;0.95;;;;;;;8.53;80.40;99846.78;5028617;28;20041;-46
2023/04/11 08:26:07;;;;;;;7.97;1.00;;;;;;;8.56;80.28;99832.28;5025654;28;20210;-45
2023/04/11 08:28:35;;;;;;;22.85;5.55;;;;;;;8.57;80.31;99831.13;5020801;28;20145;-44
2023/04/11 08:31:03;;;;;;;4.97;1.33;;;;;;;8.62;80.14;99833.63;5014856;28;20056;-44
2023/04/11 08:33:30;;;;;;;5.72;1.27;;;;;;;8.69;80.22;99828.28;5031229;28;20052;-48
2023/04/11 08:35:58;;;;;;;13.13;1.95;;;;;;;8.79;80.59;99826.97;5032703;28;20049;-47
2023/04/11 08:38:28;;;;;;;15.07;2.17;;;;;;;8.98;81.22;99818.75;5035676;28;20060;-44
2023/04/11 08:40:56;;;;;;;8.40;1.88;;;;;;;9.30;82.33;99819.53;5034320;28;20724;-46
2023/04/11 08:43:23;;;;;;;4.25;1.17;;;;;;;9.72;83.80;99801.16;5033683;28;20175;-51
2023/04/11 08:45:53;;;;;;;6.80;1.63;;;;;;;10.32;84.80;99800.47;5019196;28;20057;-45
2023/04/11 08:48:24;;;;;;;8.00;1.23;;;;;;;10.77;83.79;99796.13;5026980;28;20406;-51
2023/04/11 08:50:52;;;;;;;6.97;1.25;;;;;;;10.90;82.07;99800.31;5038987;28;20041;-45
2023/04/11 08:53:23;;;;;;;5.13;1.08;;;;;;;10.82;79.99;99795.81;5048864;28;20052;-45
2023/04/11 08:55:51;;;;;;;5.63;1.50;;;;;;;10.54;78.80;99795.31;5048244;28;20132;-44
2023/04/11 08:58:18;;;;;;;6.22;2.05;;;;;;;10.22;77.58;99789.97;5049139;28;20045;-47
2023/04/11 09:00:45;;;;;;;6.47;1.05;;;;;;;9.96;76.99;99789.00;5037221;28;20056;-51
2023/04/11 09:03:16;;;;;;;8.30;1.27;;;;;;;9.72;76.95;99776.28;5052649;28;20079;-47
2023/04/11 09:05:45;;;;;;;12.68;1.88;;;;;;;9.58;76.45;99767.69;5042683;28;20065;-44
2023/04/11 09:08:16;;;;;;;10.10;1.75;;;;;;;9.44;76.36;99759.91;5045973;28;20052;-47
2023/04/11 09:10:44;;;;;;;5.82;1.63;;;;;;;9.36;75.89;99757.34;5035933;28;20430;-47
2023/04/11 09:13:22;;;;;;;6.75;1.33;;;;;;;9.25;75.41;99740.53;5048089;28;20055;-48
2023/04/11 09:16:10;;;;;;;11.15;1.50;;;;;;;9.17;75.64;99722.19;5034372;28;20462;-45
2023/04/11 09:18:38;;;;;;;8.27;1.63;;;;;;;9.10;75.14;99711.81;5052629;28;20063;-44
2023/04/11 09:21:08;;;;;;;5.70;1.17;;;;;;;9.11;74.96;99713.38;5042157;28;20579;-45
2023/04/11 09:23:38;;;;;;;;;;;;;;;9.14;75.20;99703.56;5016807;28;20041;-45
2023/04/11 09:26:11;;;;;;;16.20;1.85;;;;;;;9.14;74.67;99701.63;5015817;28;19928;-49
2023/04/11 09:28:44;;;;;;;5.68;1.33;;;;;;;9.11;74.55;99696.81;5044046;28;20064;-47
2023/04/11 09:31:11;;;;;;;8.60;2.22;;;;;;;9.07;74.66;99695.16;5038126;28;20097;-45
2023/04/11 09:33:52;;;;;;;5.60;1.58;;;;;;;8.98;74.69;99692.59;5026547;28;21492;-47
2023/04/11 09:36:22;;;;;;;12.48;1.25;;;;;;;8.90;74.48;99677.03;5034278;28;20121;-47
2023/04/11 09:38:53;;;;;;;6.78;1.33;;;;;;;8.87;74.59;99674.19;5035714;28;20684;-45
2023/04/11 09:41:37;;;;;;;8.45;1.30;;;;;;;8.87;74.44;99658.41;5014900;28;20053;-51
2023/04/11 09:44:05;;;;;;;6.45;1.40;;;;;;;8.86;74.40;99656.84;5021453;28;20052;-48
2023/04/11 09:46:32;;;;;;;7.22;1.15;;;;;;;8.87;74.43;99646.59;5055825;28;20127;-55
2023/04/11 09:49:00;;;;;;;7.38;1.13;;;;;;;8.88;74.52;99643.47;5053412;28;20060;-46
2023/04/11 09:51:28;;;;;;;5.03;1.38;;;;;;;8.88;74.72;99629.66;5042428;28;20589;-50
2023/04/11 09:54:03;;;;;;;15.45;2.10;;;;;;;8.89;75.21;99616.66;5032874;28;20045;-46
2023/04/11 09:56:35;;;;;;;9.60;1.42;;;;;;;8.85;75.51;99611.06;5048997;28;20076;-48
2023/04/11 09:59:03;;;;;;;10.48;2.10;;;;;;;8.86;75.85;99589.78;5035738;28;20497;-45
2023/04/11 10:01:32;;;;;;;5.97;2.05;;;;;;;8.89;75.87;99589.88;5019818;28;20084;-46
2023/04/11 10:03:59;;;;;;;14.07;2.13;;;;;;;8.94;76.30;99581.31;5025156;28;20406;-45
2023/04/11 10:06:37;;;;;;;18.33;2.90;;;;;;;9.02;76.21;99565.69;5037792;28;20486;-45
2023/04/11 10:09:10;;;;;;;9.35;2.20;;;;;;;9.10;76.44;99551.66;5046911;28;20052;-44
2023/04/11 10:11:42;;;;;;;14.55;2.58;;;;;;;9.21;76.58;99546.34;5037680;28;20049;-45
2023/04/11 10:14:37;;;;;;;10.25;1.70;;;;;;;9.31;76.45;99533.91;5043317;28;20064;-49
2023/04/11 10:17:20;;;;;;;6.13;1.60;;;;;;;9.44;76.58;99516.00;5052887;28;20077;-46
2023/04/11 10:19:55;;;;;;;10.88;1.80;;;;;;;9.52;76.59;99507.47;5027301;28;20143;-44
2023/04/11 10:22:43;;;;;;;11.80;3.00;;;;;;;9.58;76.82;99502.44;5040300;28;20053;-48
2023/04/11 10:25:23;;;;;;;7.63;2.15;;;;;;;9.70;76.80;99497.50;5052548;28;20052;-45
2023/04/11 10:27:52;;;;;;;16.05;2.85;;;;;;;9.83;76.56;99495.34;5063129;28;20895;-45
2023/04/11 10:30:38;;;;;;;16.10;2.50;;;;;;;9.97;76.63;99484.53;5044258;28;20059;-45
2023/04/11 10:33:16;;;;;;;17.75;2.55;;;;;;;10.02;76.62;99469.56;5049320;28;20119;-44
2023/04/11 10:35:56;;;;;;;13.02;3.95;;;;;;;10.03;76.87;99463.69;5031161;28;20057;-45
2023/04/11 10:38:36;;;;;;;10.55;2.67;;;;;;;9.93;77.06;99460.75;5045678;28;20064;-48
2023/04/11 10:41:21;;;;;;;7.07;2.30;;;;;;;9.83;77.38;99448.34;5053572;28;20048;-48
2023/04/11 10:43:49;;;;;;;13.27;2.83;;;;;;;9.73;77.77;99440.69;5053675;28;20057;-47
2023/04/11 10:46:23;;;;;;;18.95;2.25;;;;;;;9.65;77.75;99433.47;5044203;28;20134;-47
2023/04/11 10:49:00;;;;;;;13.48;2.40;;;;;;;9.56;78.11;99424.63;5044982;28;20060;-44
2023/04/11 10:51:30;;;;;;;10.18;1.98;;;;;;;9.50;78.17;99415.06;5062917;28;20056;-45
2023/04/11 10:53:59;;;;;;;10.98;2.88;;;;;;;9.42;78.33;99408.63;5050579;28;20048;-45
2023/04/11 10:56:42;;;;;;;10.90;1.92;;;;;;;9.35;78.69;99404.94;5026786;28;20107;-48
2023/04/11 10:59:31;;;;;;;7.43;2.20;;;;;;;9.29;78.87;99392.63;5047924;28;20060;-46
2023/04/11 11:02:01;;;;;;;11.18;1.73;;;;;;;9.22;79.20;99385.00;5050600;28;20060;-44
2023/04/11 11:04:34;;;;;;;9.05;1.95;;;;;;;9.18;79.38;99375.88;5044989;28;20512;-47
2023/04/11 11:07:13;;;;;;;9.95;2.55;;;;;;;9.15;79.27;99358.09;5042489;28;20059;-49
2023/04/11 11:09:40;;;;;;;13.95;1.73;;;;;;;9.15;79.32;99338.75;5044463;28;20049;-45
2023/04/11 11:12:16;;;;;;;6.65;1.52;;;;;;;9.19;79.49;99327.75;5044231;28;20414;-45
2023/04/11 11:14:44;;;;;;;7.35;2.50;;;;;;;9.26;79.60;99316.03;5042543;28;20053;-48
2023/04/11 11:17:15;;;;;;;13.15;2.08;;;;;;;9.33;79.63;99313.38;5044056;28;20048;-49
2023/04/11 11:19:43;;;;;;;11.38;1.67;;;;;;;9.37;79.58;99314.25;5043556;28;20045;-51
2023/04/11 11:22:25;;;;;;;9.48;2.22;;;;;;;9.38;79.67;99302.00;5044068;28;20417;-45
2023/04/11 11:24:53;;;;;;;12.75;1.63;;;;;;;9.36;79.75;99293.28;5043820;28;20472;-47
2023/04/11 11:27:22;;;;;;;11.23;1.83;;;;;;;9.36;80.00;99290.53;5044897;28;20456;-51
2023/04/11 11:29:50;;;;;;;5.03;1.52;;;;;;;9.34;80.27;99273.53;5044302;28;20056;-45
2023/04/11 11:32:23;;;;;;;7.82;1.60;;;;;;;9.36;80.72;99260.97;5044008;28;20422;-45
2023/04/11 11:34:51;;;;;;;8.75;4.05;;;;;;;9.39;80.89;99242.84;5025336;28;20148;-45
2023/04/11 11:37:20;;;;;;;9.95;2.88;;;;;;;9.44;81.03;99240.56;5044242;28;20052;-43
2023/04/11 11:39:49;;;;;;;11.52;2.83;;;;;;;9.50;81.16;99218.94;5043968;28;20060;-44
2023/04/11 11:42:17;;;;;;;6.20;1.58;;;;;;;9.53;81.63;99218.94;5044682;28;20049;-44
2023/04/11 11:44:44;;;;;;;8.25;1.67;;;;;;;9.54;81.77;99194.88;5024943;28;20052;-44